Mansehra Weather



Mansehra's Current Weather

Temprature 33.44o clear sky

clear sky

Rain: 0 %

Min Temprature33.44o
Max Temprature33.44o
Humidity36
Wind Speed1.71 m/h
Sun Rise05:11:58
Sun Set19:15:07
Current Time: 24-Jul-2021 15:43:09
Lat/Lon: 34.3333, 73.2




Mansehra's Geo Location



Mansehra's Weather Forecast

Time Overall Temp Min Temp Max Temp Humidity Wind Speed Rain
24-Jul-2021 (Sat)
17:00:00 clear sky 32.930 32.930 32.930 38 1.31 m/h 0 %
20:00:00 clear sky 31.120 27.490 31.120 43 0.87 m/h 0 %
23:00:00 clear sky 28.320 26.010 28.320 49 2.08 m/h 0 %
25-Jul-2021 (Sun)
02:00:00 clear sky 25.050 25.050 25.050 58 2.06 m/h 0 %
05:00:00 scattered clouds 24.610 24.610 24.610 59 2.12 m/h 0 %
08:00:00 broken clouds 29.850 29.850 29.850 48 0.92 m/h 0 %
11:00:00 scattered clouds 33.380 33.380 33.380 38 2.21 m/h 0 %
14:00:00 few clouds 34.400 34.400 34.400 37 2.23 m/h 0 %
17:00:00 scattered clouds 33.910 33.910 33.910 39 1.22 m/h 0 %
20:00:00 scattered clouds 29.040 29.040 29.040 51 1.23 m/h 0 %
23:00:00 scattered clouds 27.510 27.510 27.510 55 1.97 m/h 0 %
26-Jul-2021 (Mon)
02:00:00 few clouds 26.780 26.780 26.780 57 1.54 m/h 0 %
05:00:00 scattered clouds 25.760 25.760 25.760 60 1.51 m/h 0 %
08:00:00 broken clouds 30.040 30.040 30.040 53 0.69 m/h 0 %
11:00:00 broken clouds 33.110 33.110 33.110 46 2.28 m/h 0 %
14:00:00 scattered clouds 33.620 33.620 33.620 45 2.1 m/h 0 %
17:00:00 broken clouds 31.530 31.530 31.530 56 1.62 m/h 0 %
20:00:00 broken clouds 28.990 28.990 28.990 62 1.27 m/h 0 %
23:00:00 broken clouds 28.660 28.660 28.660 61 1.1 m/h 0 %
27-Jul-2021 (Tue)
02:00:00 overcast clouds 28.090 28.090 28.090 64 0.97 m/h 0 %
05:00:00 light rain 26.750 26.750 26.750 72 0.64 m/h 26 %
08:00:00 light rain 28.350 28.350 28.350 70 1.35 m/h 37 %
11:00:00 light rain 31.140 31.140 31.140 62 3.38 m/h 65 %
14:00:00 moderate rain 30.090 30.090 30.090 67 3.15 m/h 332 %
17:00:00 moderate rain 28.470 28.470 28.470 76 1.29 m/h 541 %
20:00:00 moderate rain 25.370 25.370 25.370 85 1.32 m/h 850 %
23:00:00 heavy intensity rain 24.760 24.760 24.760 88 0.74 m/h 1,224 %
28-Jul-2021 (Wed)
02:00:00 heavy intensity rain 22.860 22.860 22.860 97 1.76 m/h 3,422 %
05:00:00 very heavy rain 21.440 21.440 21.440 97 2.39 m/h 5,744 %
08:00:00 moderate rain 22.370 22.370 22.370 89 1.31 m/h 348 %
11:00:00 light rain 24.040 24.040 24.040 85 1.69 m/h 180 %
14:00:00 light rain 22.970 22.970 22.970 92 0.96 m/h 224 %
17:00:00 light rain 22.600 22.600 22.600 95 0.55 m/h 270 %
20:00:00 moderate rain 22.190 22.190 22.190 96 1.35 m/h 416 %
23:00:00 light rain 21.890 21.890 21.890 93 1.18 m/h 26 %
29-Jul-2021 (Thu)
02:00:00 light rain 21.890 21.890 21.890 92 0.6 m/h 104 %
05:00:00 light rain 21.220 21.220 21.220 94 0.63 m/h 150 %
08:00:00 light rain 23.350 23.350 23.350 87 0.13 m/h 56 %
11:00:00 light rain 27.000 27.000 27.000 74 1.95 m/h 87 %
14:00:00 light rain 27.130 27.130 27.130 75 2.53 m/h 231 %

Famous Cities (60)